Time;durP1;ratioP1;P1;durP2;ratioP2;P2;SDS_P1;SDS_P2;PMS_P1;PMS_P2;Temp;Humidity;BMP_temperature;BMP_pressure;BME280_temperature;BME280_humidity;BME280_pressure;Samples;Min_cycle;Max_cycle;Signal;HPM_P1;HPM_P2
2022/07/09 00:01:00;;;;;;;10.98;6.32;;;;;;;17.73;100.00;102759.00;5215909;28;20036;-72
2022/07/09 00:03:31;;;;;;;9.13;6.07;;;;;;;17.71;100.00;102760.94;5212891;28;20022;-72
2022/07/09 00:06:02;;;;;;;10.03;6.37;;;;;;;17.68;100.00;102758.53;5213838;28;20502;-72
2022/07/09 00:08:34;;;;;;;9.70;6.30;;;;;;;17.69;100.00;102764.66;5215438;28;20553;-72
2022/07/09 00:11:05;;;;;;;8.17;6.50;;;;;;;17.68;100.00;102750.56;5215556;28;20368;-72
2022/07/09 00:13:36;;;;;;;9.73;6.10;;;;;;;17.66;100.00;102759.66;5215054;28;20097;-72
2022/07/09 00:16:08;;;;;;;9.45;6.32;;;;;;;17.58;100.00;102752.34;5214339;28;20032;-72
2022/07/09 00:18:39;;;;;;;7.50;6.18;;;;;;;17.52;100.00;102751.03;5215112;28;20026;-72
2022/07/09 00:21:10;;;;;;;7.93;5.88;;;;;;;17.62;100.00;102755.59;5215673;28;20034;-72
2022/07/09 00:23:41;;;;;;;9.65;6.20;;;;;;;17.53;100.00;102743.91;5214920;28;20022;-72
2022/07/09 00:26:13;;;;;;;6.13;5.47;;;;;;;17.59;100.00;102753.19;5215118;28;20676;-72
2022/07/09 00:28:44;;;;;;;7.82;5.57;;;;;;;17.55;100.00;102749.94;5215478;28;20033;-72
2022/07/09 00:31:16;;;;;;;6.35;5.07;;;;;;;17.57;100.00;102750.63;5215499;28;20117;-72
2022/07/09 00:33:47;;;;;;;7.22;5.22;;;;;;;17.55;100.00;102755.25;5214614;28;20034;-72
2022/07/09 00:36:18;;;;;;;9.57;5.53;;;;;;;17.42;100.00;102739.53;5215033;28;20029;-71
2022/07/09 00:38:49;;;;;;;8.10;5.55;;;;;;;17.53;100.00;102754.53;5215239;28;20022;-72
2022/07/09 00:41:21;;;;;;;6.32;5.25;;;;;;;17.47;100.00;102749.75;5214809;28;20028;-74
2022/07/09 00:43:52;;;;;;;9.75;5.65;;;;;;;17.41;100.00;102737.00;5205893;28;20026;-72
2022/07/09 00:46:23;;;;;;;7.60;5.38;;;;;;;17.44;100.00;102747.34;5214390;28;20076;-72
2022/07/09 00:48:54;;;;;;;5.90;5.13;;;;;;;17.40;100.00;102744.13;5214937;28;20030;-73
2022/07/09 00:51:26;;;;;;;9.75;6.10;;;;;;;17.37;100.00;102748.84;5203922;28;20120;-72
2022/07/09 00:53:59;;;;;;;8.73;5.10;;;;;;;17.29;100.00;102746.81;5215134;28;20423;-72
2022/07/09 00:56:31;;;;;;;8.27;5.68;;;;;;;17.17;100.00;102747.84;5213904;28;20064;-72
2022/07/09 00:59:07;;;;;;;7.30;6.18;;;;;;;17.12;100.00;102742.94;5214949;28;20419;-72
2022/07/09 01:01:40;;;;;;;7.85;6.15;;;;;;;17.03;100.00;102741.88;5214346;28;20593;-72
2022/07/09 01:04:11;;;;;;;9.02;6.13;;;;;;;17.04;100.00;102745.34;5204178;28;20106;-72
2022/07/09 01:06:43;;;;;;;8.55;6.15;;;;;;;17.05;100.00;102747.06;5214250;28;20113;-72
2022/07/09 01:09:14;;;;;;;8.00;6.20;;;;;;;16.98;100.00;102745.88;5214081;28;20402;-74
2022/07/09 01:11:47;;;;;;;11.75;6.90;;;;;;;16.94;100.00;102742.63;5214733;28;20026;-72
2022/07/09 01:14:18;;;;;;;10.85;7.18;;;;;;;16.91;100.00;102742.03;5214956;28;20112;-72
2022/07/09 01:16:58;;;;;;;7.28;6.57;;;;;;;16.99;100.00;102737.78;5212937;28;20125;-72
2022/07/09 01:19:31;;;;;;;7.60;6.80;;;;;;;16.85;100.00;102734.59;5214288;28;20029;-73
2022/07/09 01:22:03;;;;;;;9.00;6.95;;;;;;;16.84;100.00;102725.81;5214630;28;20499;-72
2022/07/09 01:24:34;;;;;;;8.52;6.95;;;;;;;16.86;100.00;102737.13;5214017;28;20029;-72
2022/07/09 01:27:06;;;;;;;9.88;7.63;;;;;;;16.80;100.00;102732.31;5213209;28;20395;-72
2022/07/09 01:29:38;;;;;;;8.53;6.90;;;;;;;16.66;100.00;102706.94;5215262;28;20037;-73
2022/07/09 01:32:09;;;;;;;9.63;6.85;;;;;;;16.70;100.00;102712.81;5209041;28;20033;-72
2022/07/09 01:34:40;;;;;;;10.32;6.75;;;;;;;16.70;100.00;102718.94;5217509;28;20112;-72
2022/07/09 01:37:12;;;;;;;9.10;6.63;;;;;;;16.69;100.00;102719.94;5218638;28;20021;-72
2022/07/09 01:39:50;;;;;;;10.13;7.00;;;;;;;16.64;100.00;102708.88;5218421;28;20183;-72
2022/07/09 01:42:21;;;;;;;8.82;7.05;;;;;;;16.57;100.00;102702.41;5218790;28;20025;-72
2022/07/09 01:44:52;;;;;;;9.27;7.43;;;;;;;16.56;100.00;102705.19;5217238;28;20221;-72
2022/07/09 01:47:23;;;;;;;10.82;6.40;;;;;;;16.60;100.00;102712.75;5218513;28;20060;-72
2022/07/09 01:49:55;;;;;;;7.70;6.88;;;;;;;16.60;100.00;102707.44;5218441;28;20079;-72
2022/07/09 01:52:28;;;;;;;9.05;7.28;;;;;;;16.60;100.00;102702.16;5217608;28;20495;-72
2022/07/09 01:55:00;;;;;;;8.63;6.90;;;;;;;16.54;100.00;102703.47;5217293;28;20033;-72
2022/07/09 01:57:31;;;;;;;7.63;6.93;;;;;;;16.50;100.00;102704.69;5208458;28;20589;-72
2022/07/09 02:00:04;;;;;;;7.43;6.63;;;;;;;16.38;100.00;102705.69;5205156;28;20026;-72
2022/07/09 02:02:36;;;;;;;7.47;6.78;;;;;;;16.39;100.00;102695.94;5217468;28;20029;-72
2022/07/09 02:05:07;;;;;;;8.27;7.20;;;;;;;16.36;100.00;102688.25;5218063;28;20913;-72
2022/07/09 02:07:39;;;;;;;8.30;6.68;;;;;;;16.27;100.00;102700.41;5217839;28;20033;-72
2022/07/09 02:10:10;;;;;;;8.65;6.53;;;;;;;16.34;100.00;102698.97;5213083;28;20025;-73
2022/07/09 02:12:42;;;;;;;7.38;6.28;;;;;;;16.27;100.00;102690.66;5217889;28;20750;-72
2022/07/09 02:15:13;;;;;;;7.13;6.22;;;;;;;16.25;100.00;102689.97;5216656;28;20025;-72
2022/07/09 02:17:44;;;;;;;7.22;6.00;;;;;;;16.25;100.00;102689.97;5217518;28;20057;-72
2022/07/09 02:20:16;;;;;;;8.70;6.45;;;;;;;16.14;100.00;102684.69;5217387;28;20049;-72
2022/07/09 02:22:47;;;;;;;7.97;5.93;;;;;;;16.16;100.00;102688.03;5218571;28;20111;-72
2022/07/09 02:25:18;;;;;;;8.15;6.38;;;;;;;16.13;100.00;102684.78;5217069;28;20025;-72
2022/07/09 02:27:49;;;;;;;8.23;6.57;;;;;;;16.12;100.00;102683.94;5217547;28;20049;-72
2022/07/09 02:30:21;;;;;;;6.82;6.13;;;;;;;16.11;100.00;102690.22;5217522;28;20528;-72
2022/07/09 02:32:52;;;;;;;9.38;6.63;;;;;;;16.11;100.00;102686.72;5216796;28;20415;-72
2022/07/09 02:35:23;;;;;;;8.98;6.68;;;;;;;16.08;100.00;102679.88;5217653;28;20026;-72
2022/07/09 02:37:54;;;;;;;8.60;6.25;;;;;;;16.03;100.00;102676.75;5217441;28;20034;-72
2022/07/09 02:40:26;;;;;;;7.43;6.72;;;;;;;16.13;100.00;102677.69;5215422;28;20033;-72
2022/07/09 02:42:57;;;;;;;8.82;6.57;;;;;;;16.06;100.00;102681.78;5207284;28;20028;-72
2022/07/09 02:45:28;;;;;;;9.85;7.40;;;;;;;16.11;100.00;102679.63;5217447;28;20025;-72
2022/07/09 02:48:00;;;;;;;7.40;6.55;;;;;;;16.05;100.00;102686.22;5206970;28;20486;-72
2022/07/09 02:50:31;;;;;;;8.30;6.93;;;;;;;16.01;100.00;102676.03;5205921;28;20076;-72
2022/07/09 02:53:02;;;;;;;9.25;7.07;;;;;;;16.04;100.00;102673.16;5217213;28;20029;-73
2022/07/09 02:55:33;;;;;;;9.05;7.03;;;;;;;16.04;100.00;102666.06;5217224;28;20029;-73
2022/07/09 02:58:05;;;;;;;7.43;6.65;;;;;;;16.00;100.00;102669.91;5216556;28;20611;-72
2022/07/09 03:00:36;;;;;;;8.43;7.35;;;;;;;15.93;100.00;102662.56;5216512;28;20034;-73
2022/07/09 03:03:08;;;;;;;8.23;6.47;;;;;;;15.96;100.00;102665.81;5217259;28;20041;-73
2022/07/09 03:05:39;;;;;;;11.18;8.07;;;;;;;15.94;100.00;102664.25;5216665;28;20337;-72
2022/07/09 03:08:11;;;;;;;11.85;9.57;;;;;;;15.85;100.00;102663.19;5216291;28;20075;-72
2022/07/09 03:10:42;;;;;;;15.13;10.23;;;;;;;15.95;100.00;102663.31;5201162;28;20040;-72
2022/07/09 03:13:13;;;;;;;11.48;10.27;;;;;;;15.95;100.00;102661.50;5217380;28;20018;-73
2022/07/09 03:15:45;;;;;;;11.48;10.38;;;;;;;15.91;100.00;102656.56;5215749;28;20033;-73
2022/07/09 03:18:16;;;;;;;16.58;11.82;;;;;;;15.99;100.00;102660.28;5217400;28;20049;-73
2022/07/09 03:20:47;;;;;;;12.40;11.20;;;;;;;15.93;100.00;102666.06;5215796;28;20040;-73
2022/07/09 03:23:19;;;;;;;13.77;12.38;;;;;;;15.91;100.00;102657.41;5217035;28;20040;-73
2022/07/09 03:25:51;;;;;;;13.35;12.02;;;;;;;15.96;100.00;102662.34;5216132;28;20464;-73
2022/07/09 03:28:22;;;;;;;14.05;12.55;;;;;;;15.87;100.00;102653.31;5216693;28;20029;-73
2022/07/09 03:30:53;;;;;;;13.80;12.20;;;;;;;15.90;100.00;102655.72;5215454;28;20046;-73
2022/07/09 03:33:25;;;;;;;13.98;12.57;;;;;;;15.90;100.00;102657.53;5216255;28;20042;-72
2022/07/09 03:35:56;;;;;;;14.40;12.90;;;;;;;15.88;100.00;102655.00;5216681;28;20030;-73
2022/07/09 03:38:27;;;;;;;15.55;12.75;;;;;;;15.95;100.00;102658.88;5216478;28;20072;-73
2022/07/09 03:40:59;;;;;;;15.38;13.80;;;;;;;15.91;100.00;102662.72;5214628;28;20537;-73
2022/07/09 03:43:30;;;;;;;17.15;14.27;;;;;;;15.82;100.00;102663.41;5216528;28;20498;-72
2022/07/09 03:46:01;;;;;;;15.10;13.48;;;;;;;15.93;100.00;102673.16;5216294;28;20422;-73
2022/07/09 03:48:33;;;;;;;16.25;14.57;;;;;;;15.86;100.00;102669.31;5215953;28;20029;-73
2022/07/09 03:51:05;;;;;;;17.05;15.23;;;;;;;15.88;100.00;102667.38;5214933;28;20430;-72
2022/07/09 03:53:36;;;;;;;16.35;14.65;;;;;;;15.82;100.00;102673.97;5206005;28;20399;-73
2022/07/09 03:56:07;;;;;;;15.15;13.50;;;;;;;15.85;100.00;102659.69;5216329;28;20026;-72
2022/07/09 03:58:38;;;;;;;16.52;14.60;;;;;;;15.85;100.00;102668.47;5214920;28;20072;-72
2022/07/09 04:01:10;;;;;;;16.45;14.77;;;;;;;15.78;100.00;102665.44;5203051;28;20495;-72
2022/07/09 04:03:41;;;;;;;18.50;14.57;;;;;;;15.90;100.00;102661.00;5215955;28;20097;-73
2022/07/09 04:06:12;;;;;;;19.33;17.27;;;;;;;15.95;100.00;102658.03;5216052;28;20022;-73
2022/07/09 04:08:44;;;;;;;20.63;18.48;;;;;;;15.93;100.00;102657.28;5201707;28;20033;-73
2022/07/09 04:11:15;;;;;;;25.65;18.95;;;;;;;15.98;100.00;102658.59;5215742;28;20026;-72
2022/07/09 04:13:47;;;;;;;21.83;19.08;;;;;;;16.00;100.00;102656.69;5215619;28;20026;-72
2022/07/09 04:16:18;;;;;;;21.30;19.02;;;;;;;15.97;100.00;102654.28;5215876;28;20020;-72
2022/07/09 04:18:49;;;;;;;24.48;20.10;;;;;;;16.02;100.00;102656.53;5214992;28;20506;-73
2022/07/09 04:21:24;;;;;;;23.35;19.98;;;;;;;16.02;100.00;102656.53;5214796;28;20599;-72
2022/07/09 04:23:55;;;;;;;22.38;20.30;;;;;;;15.97;100.00;102651.63;5205479;28;20030;-72
2022/07/09 04:26:26;;;;;;;23.25;19.88;;;;;;;16.03;100.00;102652.97;5215927;28;20398;-72
2022/07/09 04:28:57;;;;;;;25.30;19.92;;;;;;;16.08;100.00;102642.03;5214705;28;20463;-73
2022/07/09 04:31:29;;;;;;;22.30;19.98;;;;;;;16.08;100.00;102644.66;5215683;28;20426;-72
2022/07/09 04:34:00;;;;;;;25.35;20.92;;;;;;;16.15;100.00;102643.22;5206984;28;20056;-73
2022/07/09 04:36:31;;;;;;;25.65;21.75;;;;;;;16.20;100.00;102648.97;5216002;28;20029;-72
2022/07/09 04:39:03;;;;;;;24.08;21.67;;;;;;;16.18;100.00;102650.91;5214656;28;20468;-72
2022/07/09 04:41:34;;;;;;;23.60;20.83;;;;;;;16.19;100.00;102645.47;5215007;28;20578;-72
2022/07/09 04:44:07;;;;;;;24.63;21.92;;;;;;;16.26;100.00;102645.84;5215610;28;20014;-71
2022/07/09 04:46:38;;;;;;;26.20;23.43;;;;;;;16.29;100.00;102649.09;5215128;28;20030;-72
2022/07/09 04:49:10;;;;;;;25.58;22.98;;;;;;;16.39;100.00;102646.50;5213659;28;20410;-72
2022/07/09 04:51:41;;;;;;;26.30;23.35;;;;;;;16.49;100.00;102647.47;5206341;28;20033;-71
2022/07/09 04:54:12;;;;;;;28.05;25.05;;;;;;;16.45;100.00;102643.38;5215205;28;20026;-71
2022/07/09 04:56:43;;;;;;;27.23;24.52;;;;;;;16.52;100.00;102641.94;5214406;28;20075;-72
2022/07/09 04:59:15;;;;;;;26.35;23.58;;;;;;;16.63;100.00;102648.13;5214506;28;20717;-71
2022/07/09 05:01:46;;;;;;;27.50;24.70;;;;;;;16.65;100.00;102649.69;5215572;28;20033;-71
2022/07/09 05:04:17;;;;;;;27.08;24.48;;;;;;;16.69;100.00;102640.53;5214383;28;20028;-71
2022/07/09 05:06:48;;;;;;;28.85;25.80;;;;;;;16.84;100.00;102645.56;5214237;28;20037;-71
2022/07/09 05:09:20;;;;;;;30.92;27.02;;;;;;;16.85;100.00;102632.19;5214140;28;21866;-71
2022/07/09 05:11:51;;;;;;;27.80;25.00;;;;;;;16.90;100.00;102647.72;5215080;28;20026;-72
2022/07/09 05:14:22;;;;;;;31.42;28.10;;;;;;;16.96;100.00;102645.38;5204035;28;20021;-72
2022/07/09 05:16:54;;;;;;;29.17;26.30;;;;;;;16.96;100.00;102648.00;5213966;28;20091;-71
2022/07/09 05:19:26;;;;;;;28.70;25.95;;;;;;;17.01;100.00;102637.91;5213426;28;20777;-72
2022/07/09 05:21:57;;;;;;;28.67;25.85;;;;;;;17.05;100.00;102635.84;5215033;28;20487;-72
2022/07/09 05:24:29;;;;;;;29.13;26.05;;;;;;;17.05;100.00;102632.31;5214106;28;20033;-72
2022/07/09 05:27:00;;;;;;;30.45;27.45;;;;;;;17.15;100.00;102646.47;5214680;28;20025;-71
2022/07/09 05:29:32;;;;;;;29.83;27.00;;;;;;;17.22;100.00;102637.06;5212627;28;20049;-71
2022/07/09 05:32:04;;;;;;;29.88;26.45;;;;;;;17.32;100.00;102639.78;5213880;28;20041;-71
2022/07/09 05:34:35;;;;;;;30.08;27.02;;;;;;;17.36;100.00;102639.38;5214869;28;20718;-72
2022/07/09 05:37:06;;;;;;;29.27;26.38;;;;;;;17.43;100.00;102642.34;5214550;28;20076;-72
2022/07/09 05:39:38;;;;;;;32.60;26.25;;;;;;;17.44;100.00;102644.03;5214115;28;20497;-72
2022/07/09 05:42:09;;;;;;;31.52;27.20;;;;;;;17.42;100.00;102646.78;5204812;28;20052;-72
2022/07/09 05:44:40;;;;;;;29.15;26.10;;;;;;;17.46;100.00;102637.63;5214674;28;20034;-72
2022/07/09 05:47:12;;;;;;;29.25;26.08;;;;;;;17.54;100.00;102639.63;5214094;28;20033;-72
2022/07/09 05:49:43;;;;;;;30.08;27.17;;;;;;;17.55;100.00;102630.69;5213853;28;20060;-72
2022/07/09 05:52:14;;;;;;;29.25;26.30;;;;;;;17.64;100.00;102634.34;5214662;28;20041;-72
2022/07/09 05:54:46;;;;;;;28.35;25.58;;;;;;;17.75;100.00;102640.44;5214276;28;20026;-72
2022/07/09 05:57:17;;;;;;;28.70;25.92;;;;;;;17.74;100.00;102636.06;5214558;28;20486;-72
2022/07/09 05:59:48;;;;;;;28.50;25.95;;;;;;;17.84;100.00;102637.94;5213252;28;20482;-72
2022/07/09 06:02:20;;;;;;;26.92;23.98;;;;;;;17.89;100.00;102643.69;5207717;28;20026;-72
2022/07/09 06:04:51;;;;;;;26.98;24.38;;;;;;;17.99;100.00;102641.91;5210183;28;20034;-73
2022/07/09 06:07:22;;;;;;;27.63;24.92;;;;;;;18.01;100.00;102636.47;5213810;28;20026;-72
2022/07/09 06:09:54;;;;;;;28.23;25.25;;;;;;;18.07;100.00;102634.13;5213576;28;20517;-72
2022/07/09 06:12:25;;;;;;;27.25;24.50;;;;;;;18.23;100.00;102645.06;5214645;28;20506;-72
2022/07/09 06:14:56;;;;;;;26.48;23.90;;;;;;;18.27;100.00;102631.53;5212199;28;20483;-71
2022/07/09 06:17:27;;;;;;;25.77;23.15;;;;;;;18.40;100.00;102648.84;5217526;28;20108;-72
2022/07/09 06:19:59;;;;;;;27.73;25.02;;;;;;;18.42;100.00;102638.09;5216606;28;20121;-73
2022/07/09 06:22:30;;;;;;;26.75;24.00;;;;;;;18.58;100.00;102654.31;5218211;28;20328;-72
2022/07/09 06:25:02;;;;;;;27.88;25.08;;;;;;;18.73;100.00;102643.31;5217116;28;20018;-72
2022/07/09 06:27:33;;;;;;;29.63;26.02;;;;;;;18.83;100.00;102644.16;5207356;28;20462;-72
2022/07/09 06:30:05;;;;;;;26.00;23.40;;;;;;;18.89;100.00;102639.09;5216358;28;21495;-72
2022/07/09 06:32:36;;;;;;;26.93;24.07;;;;;;;19.03;100.00;102642.31;5217290;28;20427;-72
2022/07/09 06:35:08;;;;;;;27.60;24.55;;;;;;;19.10;100.00;102640.78;5217718;28;20022;-72
2022/07/09 06:37:41;;;;;;;26.45;23.85;;;;;;;19.15;100.00;102650.00;5217575;28;20026;-73
2022/07/09 06:40:12;;;;;;;25.85;23.27;;;;;;;19.24;100.00;102644.78;5217465;28;20022;-72
2022/07/09 06:42:44;;;;;;;27.80;24.83;;;;;;;19.26;100.00;102650.81;5216360;28;20040;-72
2022/07/09 06:45:15;;;;;;;26.73;24.27;;;;;;;19.28;100.00;102636.41;5206910;28;20053;-72
2022/07/09 06:47:46;;;;;;;27.17;24.63;;;;;;;19.42;100.00;102646.56;5217018;28;20022;-72
2022/07/09 06:50:18;;;;;;;28.08;25.00;;;;;;;19.51;100.00;102652.00;5216943;28;20053;-72
2022/07/09 06:52:49;;;;;;;27.17;24.38;;;;;;;19.54;100.00;102652.53;5216537;28;20029;-72
2022/07/09 06:55:21;;;;;;;27.60;24.70;;;;;;;19.48;100.00;102649.66;5217507;28;20040;-72
2022/07/09 06:57:53;;;;;;;28.92;25.92;;;;;;;19.68;100.00;102649.44;5216475;28;20038;-72
2022/07/09 07:00:24;;;;;;;27.30;24.53;;;;;;;19.66;100.00;102632.81;5217329;28;20033;-72
2022/07/09 07:02:59;;;;;;;26.67;23.97;;;;;;;19.85;100.00;102641.66;5216659;28;20026;-72
2022/07/09 07:05:30;;;;;;;26.38;23.67;;;;;;;20.00;100.00;102628.72;5216838;28;20026;-72
2022/07/09 07:08:02;;;;;;;25.10;22.50;;;;;;;20.11;100.00;102644.47;5215549;28;20033;-72
2022/07/09 07:10:33;;;;;;;24.07;21.73;;;;;;;20.34;100.00;102658.19;5217041;28;20108;-73
2022/07/09 07:13:04;;;;;;;20.47;18.47;;;;;;;20.37;100.00;102658.75;5217317;28;20029;-72
2022/07/09 07:15:35;;;;;;;20.73;18.67;;;;;;;20.42;100.00;102640.50;5215977;28;20041;-72
2022/07/09 07:18:07;;;;;;;21.63;19.23;;;;;;;20.52;100.00;102651.09;5215746;28;20486;-72
2022/07/09 07:20:38;;;;;;;19.00;17.10;;;;;;;20.55;100.00;102650.81;5216374;28;20497;-72
2022/07/09 07:23:09;;;;;;;20.70;18.77;;;;;;;20.70;100.00;102639.63;5216494;28;20030;-73
2022/07/09 07:25:40;;;;;;;22.20;20.00;;;;;;;20.85;100.00;102632.75;5216419;28;20044;-72
2022/07/09 07:28:12;;;;;;;21.30;18.97;;;;;;;20.97;100.00;102636.03;5214682;28;20030;-73
2022/07/09 07:30:43;;;;;;;23.27;18.90;;;;;;;21.04;100.00;102645.91;5217336;28;20054;-73
2022/07/09 07:33:15;;;;;;;20.00;17.90;;;;;;;21.28;100.00;102647.88;5216211;28;20538;-72
2022/07/09 07:35:46;;;;;;;20.57;18.17;;;;;;;21.38;100.00;102640.66;5216547;28;20041;-72
2022/07/09 07:38:17;;;;;;;20.77;18.70;;;;;;;21.45;100.00;102648.03;5216113;28;20041;-73
2022/07/09 07:40:49;;;;;;;20.27;18.03;;;;;;;21.47;100.00;102646.03;5216442;28;20109;-72
2022/07/09 07:43:20;;;;;;;22.07;19.60;;;;;;;21.74;100.00;102653.84;5215890;28;20040;-72
2022/07/09 07:45:51;;;;;;;21.90;18.80;;;;;;;21.85;100.00;102650.06;5216264;28;20032;-73
2022/07/09 07:48:23;;;;;;;20.33;17.77;;;;;;;21.90;100.00;102654.94;5215676;28;20108;-73
2022/07/09 07:50:54;;;;;;;21.10;19.00;;;;;;;21.81;100.00;102660.22;5215484;28;20102;-72
2022/07/09 07:53:25;;;;;;;21.57;18.67;;;;;;;21.92;100.00;102660.94;5215169;28;20498;-72
2022/07/09 07:55:57;;;;;;;20.07;18.10;;;;;;;21.98;100.00;102660.31;5216070;28;20386;-72
2022/07/09 07:58:28;;;;;;;19.97;17.93;;;;;;;22.03;100.00;102665.97;5215593;28;20080;-72
2022/07/09 08:00:59;;;;;;;20.07;17.43;;;;;;;22.19;100.00;102663.38;5216197;28;20029;-72
2022/07/09 08:03:30;;;;;;;20.17;18.17;;;;;;;22.29;100.00;102653.41;5215767;28;20387;-72
2022/07/09 08:06:02;;;;;;;20.73;18.53;;;;;;;22.31;100.00;102650.56;5216184;28;20041;-72
2022/07/09 08:08:34;;;;;;;22.20;18.37;;;;;;;22.30;100.00;102652.41;5215299;28;20387;-73
2022/07/09 08:11:05;;;;;;;19.90;17.90;;;;;;;22.39;100.00;102655.94;5215714;28;20704;-72
2022/07/09 08:13:36;;;;;;;20.13;18.00;;;;;;;22.46;100.00;102654.25;5215563;28;20494;-72
2022/07/09 08:16:08;;;;;;;19.20;17.10;;;;;;;22.59;100.00;102643.09;5215285;28;20419;-72
2022/07/09 08:18:39;;;;;;;19.17;17.20;;;;;;;22.64;100.00;102635.41;5214985;28;20037;-73
2022/07/09 08:21:10;;;;;;;19.50;17.50;;;;;;;22.79;100.00;102632.91;5214830;28;20438;-72
2022/07/09 08:23:51;;;;;;;20.10;18.10;;;;;;;22.81;100.00;102628.25;5216004;28;20030;-73
2022/07/09 08:26:25;;;;;;;18.80;16.13;;;;;;;23.01;100.00;102624.25;5215983;28;20032;-72
2022/07/09 08:28:57;;;;;;;20.77;17.27;;;;;;;23.02;100.00;102622.41;5214045;28;20430;-72
2022/07/09 08:31:28;;;;;;;19.17;17.27;;;;;;;23.18;100.00;102626.88;5215813;28;20060;-72
2022/07/09 08:33:59;;;;;;;17.87;16.17;;;;;;;23.23;100.00;102624.56;5215735;28;20045;-73
2022/07/09 08:36:30;;;;;;;16.83;15.03;;;;;;;23.15;100.00;102627.25;5215949;28;20040;-73
2022/07/09 08:39:02;;;;;;;16.63;15.03;;;;;;;23.30;100.00;102609.50;5213366;28;20160;-72
2022/07/09 08:41:33;;;;;;;16.33;14.63;;;;;;;23.34;100.00;102610.00;5215642;28;20105;-73
2022/07/09 08:44:09;;;;;;;17.50;14.43;;;;;;;23.58;100.00;102601.03;5215129;28;20059;-72
2022/07/09 08:46:41;;;;;;;15.73;13.80;;;;;;;23.66;100.00;102598.34;5214950;28;20033;-72
2022/07/09 08:49:15;;;;;;;16.33;14.63;;;;;;;23.69;100.00;102606.88;5213891;28;20087;-72
2022/07/09 08:51:49;;;;;;;15.20;13.70;;;;;;;23.92;100.00;102609.59;5215600;28;20025;-72
2022/07/09 08:54:20;;;;;;;14.50;13.07;;;;;;;23.98;98.25;102592.84;5215175;28;20018;-72
2022/07/09 08:56:52;;;;;;;13.75;11.77;;;;;;;24.06;96.63;102594.66;5214147;28;20083;-72
2022/07/09 08:59:24;;;;;;;14.20;12.82;;;;;;;24.12;96.47;102601.94;5214311;28;20029;-72
2022/07/09 09:01:55;;;;;;;14.97;13.13;;;;;;;24.21;94.09;102600.06;5215723;28;20038;-73
2022/07/09 09:04:26;;;;;;;13.80;12.47;;;;;;;24.22;93.80;102607.91;5213767;28;20076;-73
2022/07/09 09:06:57;;;;;;;14.50;11.50;;;;;;;24.26;90.28;102600.38;5215034;28;20037;-72
2022/07/09 09:09:34;;;;;;;12.07;10.47;;;;;;;24.38;91.93;102590.91;5213805;28;20080;-73
2022/07/09 09:12:06;;;;;;;14.57;11.52;;;;;;;24.20;89.93;102598.38;5214766;28;20045;-73
2022/07/09 09:14:38;;;;;;;11.87;10.77;;;;;;;24.04;92.55;102602.00;5213027;28;20022;-73
2022/07/09 09:17:11;;;;;;;14.03;11.63;;;;;;;23.95;93.41;102606.59;5214120;28;20036;-72
2022/07/09 09:19:43;;;;;;;12.82;11.52;;;;;;;23.91;93.76;102597.25;5214140;28;20109;-73
2022/07/09 09:22:16;;;;;;;16.00;11.60;;;;;;;23.90;97.83;102600.91;5214859;28;20108;-72
2022/07/09 09:24:51;;;;;;;12.48;11.27;;;;;;;24.02;93.59;102598.69;5213529;28;20030;-72
2022/07/09 09:27:30;;;;;;;14.30;11.45;;;;;;;24.11;93.96;102591.44;5202277;28;20096;-72
2022/07/09 09:30:02;;;;;;;12.68;11.32;;;;;;;23.99;94.05;102585.66;5213893;28;20065;-72
2022/07/09 09:32:34;;;;;;;15.75;11.13;;;;;;;23.90;95.51;102587.53;5214339;28;20038;-72
2022/07/09 09:35:05;;;;;;;14.50;12.33;;;;;;;24.04;94.62;102591.28;5215264;28;20538;-72
2022/07/09 09:37:37;;;;;;;14.70;13.17;;;;;;;24.02;95.23;102579.94;5214385;28;20109;-72
2022/07/09 09:40:10;;;;;;;15.00;13.10;;;;;;;24.21;95.91;102592.03;5214306;28;20104;-72
2022/07/09 09:42:42;;;;;;;14.10;11.98;;;;;;;24.42;95.15;102588.72;5214596;28;20041;-72
2022/07/09 09:45:17;;;;;;;12.53;11.03;;;;;;;24.46;94.03;102587.34;5206005;28;20121;-72
2022/07/09 09:47:50;;;;;;;12.93;11.27;;;;;;;24.37;92.92;102589.25;5214143;28;20028;-73
2022/07/09 09:50:25;;;;;;;13.93;12.13;;;;;;;24.19;90.92;102594.06;5214946;28;20021;-72
2022/07/09 09:52:56;;;;;;;14.18;12.68;;;;;;;23.90;95.18;102595.56;5217949;28;20044;-72
2022/07/09 09:55:28;;;;;;;13.43;12.13;;;;;;;23.80;96.00;102592.28;5218295;28;20386;-72
2022/07/09 09:58:00;;;;;;;14.00;12.45;;;;;;;23.68;96.64;102589.16;5218418;28;20430;-72
2022/07/09 10:00:31;;;;;;;14.87;13.17;;;;;;;23.55;97.78;102597.69;5216639;28;20188;-72
2022/07/09 10:03:03;;;;;;;15.83;14.03;;;;;;;23.50;97.32;102594.72;5218476;28;20026;-72
2022/07/09 10:05:34;;;;;;;14.37;12.73;;;;;;;23.41;99.49;102590.41;5218173;28;20754;-72
2022/07/09 10:08:06;;;;;;;13.67;10.37;;;;;;;23.50;98.14;102597.38;5217890;28;20403;-72
2022/07/09 10:10:37;;;;;;;12.07;10.37;;;;;;;23.38;99.90;102598.78;5204315;28;20057;-73
2022/07/09 10:13:19;;;;;;;9.77;8.77;;;;;;;23.42;98.03;102592.06;5218108;28;20372;-72
2022/07/09 10:15:51;;;;;;;8.35;7.50;;;;;;;23.37;98.98;102593.59;5216498;28;20463;-72
2022/07/09 10:18:23;;;;;;;11.68;8.40;;;;;;;23.32;97.35;102588.75;5217714;28;20149;-72
2022/07/09 10:20:57;;;;;;;11.37;8.00;;;;;;;23.54;97.59;102596.03;5217875;28;20100;-72
2022/07/09 10:23:29;;;;;;;10.38;7.97;;;;;;;23.45;95.09;102594.41;5217837;28;20022;-73
2022/07/09 10:26:00;;;;;;;10.07;6.70;;;;;;;23.49;95.70;102582.34;5217247;28;20041;-72
2022/07/09 10:28:40;;;;;;;10.47;6.10;;;;;;;23.63;95.87;102587.97;5216991;28;20026;-72
2022/07/09 10:31:20;;;;;;;7.22;5.18;;;;;;;23.44;93.19;102594.56;5218019;28;20132;-73
2022/07/09 10:34:06;;;;;;;6.55;5.32;;;;;;;23.61;94.22;102592.69;5216855;28;20038;-72
2022/07/09 10:36:39;;;;;;;5.07;4.32;;;;;;;23.51;94.76;102596.38;5217701;28;20390;-73
2022/07/09 10:39:11;;;;;;;7.05;5.07;;;;;;;23.39;93.07;102580.88;5217169;28;20042;-73
2022/07/09 10:41:43;;;;;;;7.25;5.45;;;;;;;23.38;93.02;102577.38;5217046;28;20122;-72
2022/07/09 10:44:26;;;;;;;7.50;5.03;;;;;;;23.75;94.93;102575.91;5216879;28;20500;-72
2022/07/09 10:46:57;;;;;;;;;;;;;;;24.46;90.67;102579.31;5217867;28;20029;-72
2022/07/09 10:49:29;;;;;;;4.82;3.05;;;;;;;24.21;85.38;102578.66;5216417;28;19928;-72
2022/07/09 10:52:00;;;;;;;6.37;4.63;;;;;;;24.36;85.66;102578.69;5216972;28;20391;-73
2022/07/09 10:54:33;;;;;;;5.37;3.50;;;;;;;24.48;84.78;102583.50;5217137;28;20076;-73
2022/07/09 10:57:05;;;;;;;8.63;5.60;;;;;;;24.42;80.64;102568.13;5217095;28;20494;-72
2022/07/09 10:59:36;;;;;;;8.18;5.25;;;;;;;24.78;80.04;102580.88;5215788;28;20029;-73
2022/07/09 11:02:19;;;;;;;4.63;3.60;;;;;;;25.06;77.71;102580.28;5216901;28;20021;-73
2022/07/09 11:04:52;;;;;;;5.97;3.22;;;;;;;25.24;80.13;102581.59;5217341;28;20537;-73
2022/07/09 11:07:25;;;;;;;4.20;3.35;;;;;;;25.23;79.37;102584.47;5217058;28;20029;-72
2022/07/09 11:09:56;;;;;;;7.18;3.47;;;;;;;25.10;77.88;102587.78;5216418;28;20057;-72
2022/07/09 11:12:27;;;;;;;3.83;2.80;;;;;;;25.12;75.55;102579.56;5217330;28;20058;-72
2022/07/09 11:14:59;;;;;;;4.23;2.47;;;;;;;24.83;73.94;102578.47;5214632;28;20041;-73
2022/07/09 11:17:30;;;;;;;4.33;2.10;;;;;;;24.56;74.88;102592.47;5216638;28;20060;-72
2022/07/09 11:20:01;;;;;;;3.00;1.97;;;;;;;24.42;74.99;102586.03;5216565;28;20033;-73
2022/07/09 11:22:33;;;;;;;3.73;2.37;;;;;;;24.58;76.30;102593.94;5217442;28;20033;-72
2022/07/09 11:25:04;;;;;;;2.80;2.30;;;;;;;24.47;77.83;102584.50;5216488;28;20026;-72
2022/07/09 11:27:40;;;;;;;5.67;2.03;;;;;;;24.90;80.05;102587.47;5208737;28;20482;-72
2022/07/09 11:30:14;;;;;;;2.47;1.73;;;;;;;24.94;78.81;102586.09;5216024;28;20045;-72